Lowlands Sky — 3FJW9 — position and weather

sailwx.info

Track history (hours):
 
Tides and Currents Weather Stations Pressure Air Temp Water Temp Dewpoint Dewpoint Depression Visibility Wind Speed Wind Dir Waves Ship Positions

Lowlands Sky

Last reported at 2015-Feb-05 05:33 UTC. Time now 2015-Mar-02 19:03 UTC.
Position N 27°44' W 082°32'.
Warning: this ship's position is 25 days out of date.

Length 177 m; draft 10.2 m.

Type: Cargo ship. MMSI: 370830000.

Date/timePositionNaut miles runAvg speedWind from/ knotsBaromVisibWave heightAir tempDewpointWater temp
2015-Feb-05 05:33N 27°44' W 082°32'9 9.2
2015-Feb-05 04:34N 27°52' W 082°27'3 3.1
2015-Feb-05 03:32N 27°55' W 082°25'0 0.0
2015-Feb-05 02:32N 27°55' W 082°25'0 0.0
2015-Feb-05 01:32N 27°55' W 082°25'0 0.0
2015-Feb-05 00:32N 27°55' W 082°25'0 0.0
2015-Feb-04 23:32N 27°55' W 082°25'0 0.0
2015-Feb-04 22:32N 27°55' W 082°25'0 0.0
2015-Feb-04 21:32N 27°55' W 082°25'0 0.0
2015-Feb-04 20:32N 27°55' W 082°25'0 0.0
2015-Feb-04 19:32N 27°55' W 082°25'0 0.0
2015-Feb-04 18:32N 27°55' W 082°25'0 0.0
2015-Feb-04 17:32N 27°55' W 082°25'0 0.0
2015-Feb-04 16:32N 27°55' W 082°25'0 0.0
2015-Feb-04 15:32N 27°55' W 082°25'0 0.0
2015-Feb-04 14:32N 27°55' W 082°25'0 0.0
2015-Feb-04 13:32N 27°55' W 082°25'0 0.0
2015-Feb-04 12:32N 27°55' W 082°25'0 0.0
2015-Feb-04 11:32N 27°55' W 082°25'0 0.0
2015-Feb-04 10:32N 27°55' W 082°25'0 0.0
2015-Feb-04 09:32N 27°55' W 082°25'0 0.0
2015-Feb-04 08:32N 27°55' W 082°25'0 0.0
2015-Feb-04 07:32N 27°55' W 082°25'0 0.0
2015-Feb-04 06:33N 27°55' W 082°25'3 2.9
2015-Feb-04 05:33N 27°52' W 082°27'4 4.5
2015-Feb-04 04:33N 27°48' W 082°24'0 0.0
2015-Feb-04 03:28N 27°48' W 082°24'0 0.0
2015-Feb-04 02:31N 27°48' W 082°24'0 0.0
2015-Feb-04 01:31N 27°48' W 082°24'0 0.0
2015-Feb-04 00:31N 27°48' W 082°24'0 0.0
2015-Feb-03 23:31N 27°48' W 082°24'0 0.0
2015-Feb-03 22:31N 27°48' W 082°24'0 0.0
2015-Feb-03 21:31N 27°48' W 082°24'0 0.0
2015-Feb-03 20:31N 27°48' W 082°24'0 0.0
2015-Feb-03 19:31N 27°48' W 082°24'0 0.4
2015-Feb-03 18:33N 27°48' W 082°25'3 2.6
2015-Feb-03 17:34N 27°51' W 082°25'1 1.4
2015-Feb-03 16:31N 27°51' W 082°24'0 0.0
2015-Feb-03 15:31N 27°51' W 082°24'0 0.0
2015-Feb-03 14:31N 27°51' W 082°24'0 0.0
2015-Feb-03 13:31N 27°51' W 082°24'0 0.0
2015-Feb-03 12:31N 27°51' W 082°24'0 0.0
2015-Feb-03 11:31N 27°51' W 082°24'0 0.0
2015-Feb-03 10:31N 27°51' W 082°24'0 0.0
2015-Feb-03 09:31N 27°51' W 082°24'0 0.0
2015-Feb-03 08:31N 27°51' W 082°24'0 0.0
2015-Feb-03 07:31N 27°51' W 082°24'0 0.0
2015-Feb-03 06:31N 27°51' W 082°24'0 0.0
2015-Feb-03 05:31N 27°51' W 082°24'0 0.0
2015-Feb-03 04:31N 27°51' W 082°24'0 0.0
2015-Feb-03 03:31N 27°51' W 082°24'0 0.0
2015-Feb-03 02:31N 27°51' W 082°24'0 0.0
2015-Feb-03 01:31N 27°51' W 082°24'0 0.0
2015-Feb-03 00:31N 27°51' W 082°24'0 0.0
2015-Feb-02 23:31N 27°51' W 082°24'0 0.0
2015-Feb-02 22:31N 27°51' W 082°24'0 0.0
2015-Feb-02 21:31N 27°51' W 082°24'0 0.0
2015-Feb-02 20:31N 27°51' W 082°24'0 0.0
2015-Feb-02 19:31N 27°51' W 082°24'0 0.0
2015-Feb-02 18:31N 27°51' W 082°24'0 0.0
2015-Feb-02 17:31N 27°51' W 082°24'0 0.0
2015-Feb-02 16:31N 27°51' W 082°24'0 0.0
2015-Feb-02 15:33N 27°51' W 082°24'7 7.0
2015-Feb-02 14:33N 27°47' W 082°30'  
2015-Jan-30 18:12N 25°57' W 079°26'912.3
2015-Jan-30 17:30N 26°05' W 079°25'  
Track history (hours):
 
Tides and Currents Weather Stations Pressure Air Temp Water Temp Dewpoint Dewpoint Depression Visibility Wind Speed Wind Dir Waves Ship Positions

Lowlands Sky

Last reported at 2015-Feb-05 05:33 UTC. Time now 2015-Mar-02 19:03 UTC.
Position N 27°44' W 082°32'.
Warning: this ship's position is 25 days out of date.

Length 177 m; draft 10.2 m.

Type: Cargo ship. MMSI: 370830000.

Date/timePositionNaut miles runAvg speedWind from/ knotsBaromVisibWave heightAir tempDewpointWater temp
2015-Feb-05 05:33N 27°44' W 082°32'9 9.2
2015-Feb-05 04:34N 27°52' W 082°27'3 3.1
2015-Feb-05 03:32N 27°55' W 082°25'0 0.0
2015-Feb-05 02:32N 27°55' W 082°25'0 0.0
2015-Feb-05 01:32N 27°55' W 082°25'0 0.0
2015-Feb-05 00:32N 27°55' W 082°25'0 0.0
2015-Feb-04 23:32N 27°55' W 082°25'0 0.0
2015-Feb-04 22:32N 27°55' W 082°25'0 0.0
2015-Feb-04 21:32N 27°55' W 082°25'0 0.0
2015-Feb-04 20:32N 27°55' W 082°25'0 0.0
2015-Feb-04 19:32N 27°55' W 082°25'0 0.0
2015-Feb-04 18:32N 27°55' W 082°25'0 0.0
2015-Feb-04 17:32N 27°55' W 082°25'0 0.0
2015-Feb-04 16:32N 27°55' W 082°25'0 0.0
2015-Feb-04 15:32N 27°55' W 082°25'0 0.0
2015-Feb-04 14:32N 27°55' W 082°25'0 0.0
2015-Feb-04 13:32N 27°55' W 082°25'0 0.0
2015-Feb-04 12:32N 27°55' W 082°25'0 0.0
2015-Feb-04 11:32N 27°55' W 082°25'0 0.0
2015-Feb-04 10:32N 27°55' W 082°25'0 0.0
2015-Feb-04 09:32N 27°55' W 082°25'0 0.0
2015-Feb-04 08:32N 27°55' W 082°25'0 0.0
2015-Feb-04 07:32N 27°55' W 082°25'0 0.0
2015-Feb-04 06:33N 27°55' W 082°25'3 2.9
2015-Feb-04 05:33N 27°52' W 082°27'4 4.5
2015-Feb-04 04:33N 27°48' W 082°24'0 0.0
2015-Feb-04 03:28N 27°48' W 082°24'0 0.0
2015-Feb-04 02:31N 27°48' W 082°24'0 0.0
2015-Feb-04 01:31N 27°48' W 082°24'0 0.0
2015-Feb-04 00:31N 27°48' W 082°24'0 0.0
2015-Feb-03 23:31N 27°48' W 082°24'0 0.0
2015-Feb-03 22:31N 27°48' W 082°24'0 0.0
2015-Feb-03 21:31N 27°48' W 082°24'0 0.0
2015-Feb-03 20:31N 27°48' W 082°24'0 0.0
2015-Feb-03 19:31N 27°48' W 082°24'0 0.4
2015-Feb-03 18:33N 27°48' W 082°25'3 2.6
2015-Feb-03 17:34N 27°51' W 082°25'1 1.4
2015-Feb-03 16:31N 27°51' W 082°24'0 0.0
2015-Feb-03 15:31N 27°51' W 082°24'0 0.0
2015-Feb-03 14:31N 27°51' W 082°24'0 0.0
2015-Feb-03 13:31N 27°51' W 082°24'0 0.0
2015-Feb-03 12:31N 27°51' W 082°24'0 0.0
2015-Feb-03 11:31N 27°51' W 082°24'0 0.0
2015-Feb-03 10:31N 27°51' W 082°24'0 0.0
2015-Feb-03 09:31N 27°51' W 082°24'0 0.0
2015-Feb-03 08:31N 27°51' W 082°24'0 0.0
2015-Feb-03 07:31N 27°51' W 082°24'0 0.0
2015-Feb-03 06:31N 27°51' W 082°24'0 0.0
2015-Feb-03 05:31N 27°51' W 082°24'0 0.0
2015-Feb-03 04:31N 27°51' W 082°24'0 0.0
2015-Feb-03 03:31N 27°51' W 082°24'0 0.0
2015-Feb-03 02:31N 27°51' W 082°24'0 0.0
2015-Feb-03 01:31N 27°51' W 082°24'0 0.0
2015-Feb-03 00:31N 27°51' W 082°24'0 0.0
2015-Feb-02 23:31N 27°51' W 082°24'0 0.0
2015-Feb-02 22:31N 27°51' W 082°24'0 0.0
2015-Feb-02 21:31N 27°51' W 082°24'0 0.0
2015-Feb-02 20:31N 27°51' W 082°24'0 0.0
2015-Feb-02 19:31N 27°51' W 082°24'0 0.0
2015-Feb-02 18:31N 27°51' W 082°24'0 0.0
2015-Feb-02 17:31N 27°51' W 082°24'0 0.0
2015-Feb-02 16:31N 27°51' W 082°24'0 0.0
2015-Feb-02 15:33N 27°51' W 082°24'7 7.0
2015-Feb-02 14:33N 27°47' W 082°30'  
2015-Jan-30 18:12N 25°57' W 079°26'912.3
2015-Jan-30 17:30N 26°05' W 079°25'  

Dump ship's entire track history